Airfield :
LOGIN :

Register | Disclaimer

   EN    FR    IT 

 










Legend :    VFR   Marginal VFR   IFR   Intensive IFR   Very Intensive IFR
Visi :
Ceiling :
>= 8 km
>= 3000ft
5 to 8 km
1000 to 3000 ft
1500m to 5 km
500 to 1000 ft
800 to 1500m
200 to 500 ft
< 800m
< 200 ft
Symbols :   Thunderstorms  Fog  Heavy snow  Heavy precipitations  Wind > 20 kt
SIGMETs :     Misc.  Thunderstorms  Icing  Turbulence  Mountain Waves  Volcanic Ashes






- Airport Elevation : 55 ft
- IATA code : DSA


EGCN - Robin Hood Doncaster Sheffield

CURRENT METAR :
  • 271150Z 25018KT 9999 FEW024 SCT037 BKN046 15/09 Q1006

EXPIRED METARs :
  • 271120Z 25018KT 9999 FEW020 BKN027 14/09 Q1005
  • 271050Z 25017G27KT 9999 SCT021 BKN026 13/09 Q1005
  • 271020Z 26019KT 9999 FEW019 SCT025 BKN031 14/10 Q1004
  • 270950Z 27014G25KT 9999 SCT013 BKN018 13/10 Q1003
  • 270920Z 26012KT 9999 FEW011 BKN045 13/11 Q1002

TAF TAF EGCN
Valid from the 27 at 12:00 until the 28 at 12:00 UTC


271101Z 2712/2812 26012KT 9999 SCT020
PROB30
TEMPO 2712/2718 26016G26KT 8000 SHRA
BECMG 2718/2721 20008KT
PROB30
TEMPO 2811/2812 7000 SHRA BKN014



MET'MAP, your aeronautical weather chart ! - Copyright ORBIFLY December 2007 - Disclaimer

ORBIFLY MET'MAP TEAM :

Programming & Development : Alexandra Zaïnal
Concept & original design : Baudouin d'Aumeries
Assistance for programming : Marc-Olivier Méhu
Technical & hardware support : Manuel Goepfert

Contact : metmap@orbifly.com




SOURCES & CREDITS :

   NOAA